Flight Track Log - Related Links

Times and Time Zones

All times are in EDT time to prevent confusion due to time zone crossing. See the N818PW flight status page for this flight to view local times or setup timezone preferences in your user account.

Time Position Orientation Groundspeed Altitude Reporting Facility
EDT Latitude Longitude Course Direction KTS MPH feet Rate Location/Type
Thu 06:39:41 PM 42.1750 -89.0930 200° South 118 136 1,200  Level FlightAware ADS-B
Thu 06:39:49 PM 42.1710 -89.0980 223° Southwest 131 151 1,300 1,059 Climbing FlightAware ADS-B
Thu 06:39:58 PM 42.1700 -89.1040 257° West 139 160 1,500 923 Climbing FlightAware ADS-B
Thu 06:40:02 PM 42.1710 -89.1080 289° West 140 161 1,500 1,000 Level FlightAware ADS-B
Thu 06:40:10 PM 42.1720 -89.1140 283° West 139 160 1,700 1,875 Climbing FlightAware ADS-B
Thu 06:40:18 PM 42.1740 -89.1210 291° West 139 160 2,000 1,500 Climbing FlightAware ADS-B
Thu 06:40:26 PM 42.1770 -89.1270 304° West 141 162 2,100 1,071 Climbing FlightAware ADS-B
Thu 06:40:46 PM 42.1860 -89.1410 311° West 148 170 2,500 1,200 Climbing FlightAware ADS-B
Thu 06:41:06 PM 42.1960 -89.1550 314° West 152 175 2,900 600 Climbing FlightAware ADS-B
Thu 06:41:26 PM 42.2060 -89.1700 312° West 179 206 2,900  Level FlightAware ADS-B
Thu 06:41:46 PM 42.2170 -89.1870 311° West 190 219 2,900  Level FlightAware ADS-B
Thu 06:41:55 PM 42.2230 -89.1950 315° West 193 222 2,900  Level FlightAware ADS-B
Thu 06:42:04 PM 42.2300 -89.1980 342° North 194 223 2,900 462 Level FlightAware ADS-B
Thu 06:42:08 PM 42.2350 -89.1990 352° North 192 221 3,000 1,125 Climbing FlightAware ADS-B
Thu 06:42:20 PM 42.2450 -89.2010 352° North 186 214 3,200 973 Climbing FlightAware ADS-B
Thu 06:42:45 PM 42.2660 -89.2030 356° North 177 204 3,600 1,091 Climbing FlightAware ADS-B
Thu 06:43:04 PM 42.2810 -89.2050 354° North 168 193 4,000 1,200 Climbing FlightAware ADS-B
Thu 06:43:20 PM 42.2930 -89.2070 353° North 158 182 4,300 1,459 Climbing FlightAware ADS-B
Thu 06:43:41 PM 42.3080 -89.2090 354° North 146 168 4,900 1,463 Climbing FlightAware ADS-B
Thu 06:44:01 PM 42.3210 -89.2110 354° North 138 159 5,300 1,385 Climbing FlightAware ADS-B
Thu 06:44:20 PM 42.3330 -89.2130 353° North 132 152 5,800 878 Climbing FlightAware ADS-B
Thu 06:44:42 PM 42.3470 -89.2150 354° North 155 178 5,900 146 Climbing FlightAware ADS-B
Thu 06:45:01 PM 42.3620 -89.2180 352° North 173 199 5,900  Level FlightAware ADS-B
Thu 06:45:27 PM 42.3830 -89.2210 354° North 181 208 5,900  Level FlightAware ADS-B
Thu 06:45:46 PM 42.3990 -89.2240 352° North 183 211 5,900  Level FlightAware ADS-B
Thu 06:46:07 PM 42.4160 -89.2260 355° North 186 214 5,900  Level FlightAware ADS-B
Thu 06:46:26 PM 42.4330 -89.2290 353° North 187 215 5,900  Level FlightAware ADS-B
Thu 06:46:46 PM 42.4510 -89.2310 355° North 188 216 5,900  Level FlightAware ADS-B
Thu 06:47:08 PM 42.4700 -89.2340 353° North 188 216 5,900  Level FlightAware ADS-B
Thu 06:47:28 PM 42.4870 -89.2370 353° North 188 216 5,900  Level FlightAware ADS-B
Thu 06:47:50 PM 42.5060 -89.2400 353° North 189 217 5,900  Level FlightAware ADS-B
Thu 06:48:13 PM 42.5260 -89.2430 354° North 189 217 5,900  Level FlightAware ADS-B
Thu 06:48:32 PM 42.5420 -89.2450 355° North 189 217 5,900  Level FlightAware ADS-B
Thu 06:48:50 PM 42.5580 -89.2470 355° North 189 217 5,900  Level FlightAware ADS-B
Thu 06:49:14 PM 42.5790 -89.2510 352° North 189 217 5,900  Level FlightAware ADS-B
Thu 06:49:38 PM 42.6000 -89.2540 354° North 189 217 5,900  Level FlightAware ADS-B
Thu 06:49:50 PM 42.6100 -89.2560 352° North 190 219 5,900  Level FlightAware ADS-B
Thu 06:50:10 PM 42.6280 -89.2580 355° North 190 219 5,900  Level FlightAware ADS-B
Thu 06:50:35 PM 42.6490 -89.2620 352° North 190 219 5,900  Level FlightAware ADS-B
Thu 06:50:55 PM 42.6660 -89.2640 355° North 189 217 5,900  Level FlightAware ADS-B
Thu 06:51:14 PM 42.6840 -89.2660 355° North 190 219 5,900  Level FlightAware ADS-B
Thu 06:51:22 PM 42.6910 -89.2640 12° North 190 219 5,900  Level FlightAware ADS-B
Thu 06:51:35 PM 42.7000 -89.2590 22° Northeast 190 219 5,900  Level FlightAware ADS-B
Thu 06:51:57 PM 42.7180 -89.2480 24° Northeast 190 219 5,900  Level FlightAware ADS-B
Thu 06:52:16 PM 42.7340 -89.2390 22° Northeast 191 220 5,900 154 Level FlightAware ADS-B
Thu 06:52:36 PM 42.7510 -89.2290 23° Northeast 190 219 6,000  Climbing FlightAware ADS-B
Thu 06:53:01 PM 42.7700 -89.2180 23° Northeast 191 220 5,900 -136 Descending FlightAware ADS-B
Thu 06:53:20 PM 42.7870 -89.2090 21° North 191 220 5,900  Level FlightAware ADS-B
Thu 06:53:40 PM 42.8030 -89.1990 25° Northeast 192 221 5,900  Level FlightAware ADS-B
Thu 06:53:48 PM 42.8090 -89.1960 20° North 191 220 5,900 214 Level FlightAware ADS-B
Thu 06:54:08 PM 42.8270 -89.1910 12° North 192 221 6,000  Climbing FlightAware ADS-B
Thu 06:54:32 PM 42.8480 -89.1840 14° North 192 221 5,900 -150 Descending FlightAware ADS-B
Thu 06:54:48 PM 42.8610 -89.1790 16° North 192 221 5,900  Level FlightAware ADS-B
Thu 06:55:12 PM 42.8820 -89.1720 14° North 192 221 5,900  Level FlightAware ADS-B
Thu 06:55:29 PM 42.8960 -89.1680 12° North 192 221 5,900  Level FlightAware ADS-B
Thu 06:55:48 PM 42.9130 -89.1650 North 191 220 5,900 -439 Level FlightAware ADS-B
Thu 06:56:10 PM 42.9330 -89.1680 354° North 201 231 5,600 -837 Descending FlightAware ADS-B
Thu 06:56:31 PM 42.9540 -89.1700 356° North 205 236 5,300 -1,000 Descending FlightAware ADS-B
Thu 06:56:46 PM 42.9680 -89.1720 354° North 206 237 5,000 -1,024 Descending FlightAware ADS-B
Thu 06:57:12 PM 42.9930 -89.1760 353° North 209 241 4,600 -913 Descending FlightAware ADS-B
Thu 06:57:32 PM 43.0120 -89.1780 356° North 212 244 4,300 -938 Descending FlightAware ADS-B
Thu 06:57:44 PM 43.0240 -89.1800 353° North 214 246 4,100 -973 Descending FlightAware ADS-B
Thu 06:58:09 PM 43.0480 -89.1850 351° North 216 249 3,700 -1,000 Descending FlightAware ADS-B
Thu 06:58:26 PM 43.0640 -89.1910 345° North 209 241 3,400 -977 Descending FlightAware ADS-B
Thu 06:58:52 PM 43.0880 -89.2000 345° North 202 232 3,000 -1,080 Descending FlightAware ADS-B
Thu 06:59:16 PM 43.1090 -89.2100 341° North 198 228 2,500 -600 Descending FlightAware ADS-B
Thu 06:59:42 PM 43.1280 -89.2200 339° North 198 228 2,500 -409 Level FlightAware ADS-B
Thu 07:00:00 PM 43.1390 -89.2290 329° Northwest 180 207 2,200 -383 Descending FlightAware ADS-B
Thu 07:00:29 PM 43.1580 -89.2440 330° Northwest 178 205 2,200  Level FlightAware ADS-B
Thu 07:00:36 PM 43.1600 -89.2590 280° West 147 169 2,200  Level FlightAware ADS-B
Thu 07:01:05 PM 43.1690 -89.2790 302° West 139 160 2,200 -696 Level FlightAware ADS-B
Thu 07:01:45 PM 43.1739 -89.3067 302° West 148 170 1,400 -647 Descending Chicago Center
Thu 07:02:47 PM 43.1533 -89.3292 219° Southwest 118 136 1,100 -290 Descending Chicago Center
Thu 07:04:00 PM 43.1333 -89.3333 216° Southwest  Level FlightAware Approximate

Login

Don't have an account? Register now (free) for customized features, flight alerts, and more!